sensor_id;sensor_type;location;lat;lon;timestamp;temperature;humidity
52879;DHT22;38747;53.140;6.498;2022-12-07T00:01:30;3.30;99.90
52879;DHT22;38747;53.140;6.498;2022-12-07T00:04:00;3.30;99.90
52879;DHT22;38747;53.140;6.498;2022-12-07T00:06:31;3.30;99.90
52879;DHT22;38747;53.140;6.498;2022-12-07T00:08:57;3.30;99.90
52879;DHT22;38747;53.140;6.498;2022-12-07T00:11:23;3.20;99.90
52879;DHT22;38747;53.140;6.498;2022-12-07T00:13:57;3.20;99.90
52879;DHT22;38747;53.140;6.498;2022-12-07T00:16:25;3.20;99.90
52879;DHT22;38747;53.140;6.498;2022-12-07T00:18:51;3.10;99.90
52879;DHT22;38747;53.140;6.498;2022-12-07T00:21:20;3.10;99.90
52879;DHT22;38747;53.140;6.498;2022-12-07T00:23:47;3.10;99.90
52879;DHT22;38747;53.140;6.498;2022-12-07T00:26:19;3.10;99.90
52879;DHT22;38747;53.140;6.498;2022-12-07T00:28:46;3.10;99.90
52879;DHT22;38747;53.140;6.498;2022-12-07T00:31:13;3.00;99.90
52879;DHT22;38747;53.140;6.498;2022-12-07T00:33:39;3.00;99.90
52879;DHT22;38747;53.140;6.498;2022-12-07T00:36:11;3.10;99.90
52879;DHT22;38747;53.140;6.498;2022-12-07T00:38:40;3.10;99.90
52879;DHT22;38747;53.140;6.498;2022-12-07T00:41:10;3.10;99.90
52879;DHT22;38747;53.140;6.498;2022-12-07T00:43:37;3.20;99.90
52879;DHT22;38747;53.140;6.498;2022-12-07T00:46:03;3.30;99.90
52879;DHT22;38747;53.140;6.498;2022-12-07T00:48:29;3.30;99.90
52879;DHT22;38747;53.140;6.498;2022-12-07T00:50:55;3.30;99.90
52879;DHT22;38747;53.140;6.498;2022-12-07T00:53:20;3.30;99.90
52879;DHT22;38747;53.140;6.498;2022-12-07T00:55:46;3.30;99.90
52879;DHT22;38747;53.140;6.498;2022-12-07T00:58:12;3.30;99.90
52879;DHT22;38747;53.140;6.498;2022-12-07T01:00:39;3.30;99.90
52879;DHT22;38747;53.140;6.498;2022-12-07T01:03:06;3.40;99.90
52879;DHT22;38747;53.140;6.498;2022-12-07T01:05:33;3.40;99.90
52879;DHT22;38747;53.140;6.498;2022-12-07T01:08:02;3.50;99.90
52879;DHT22;38747;53.140;6.498;2022-12-07T01:10:28;3.50;99.90
52879;DHT22;38747;53.140;6.498;2022-12-07T01:12:56;3.50;99.90
52879;DHT22;38747;53.140;6.498;2022-12-07T01:15:21;3.50;99.90
52879;DHT22;38747;53.140;6.498;2022-12-07T01:17:47;3.50;99.90
52879;DHT22;38747;53.140;6.498;2022-12-07T01:20:13;3.50;99.90
52879;DHT22;38747;53.140;6.498;2022-12-07T01:22:42;3.50;99.90
52879;DHT22;38747;53.140;6.498;2022-12-07T01:25:10;3.50;99.90
52879;DHT22;38747;53.140;6.498;2022-12-07T01:27:36;3.40;99.90
52879;DHT22;38747;53.140;6.498;2022-12-07T01:30:04;3.40;99.90
52879;DHT22;38747;53.140;6.498;2022-12-07T01:32:30;3.40;99.90
52879;DHT22;38747;53.140;6.498;2022-12-07T01:34:56;3.30;99.90
52879;DHT22;38747;53.140;6.498;2022-12-07T01:37:22;3.40;99.90
52879;DHT22;38747;53.140;6.498;2022-12-07T01:39:51;3.40;99.90
52879;DHT22;38747;53.140;6.498;2022-12-07T01:42:17;3.40;99.90
52879;DHT22;38747;53.140;6.498;2022-12-07T01:47:50;3.50;99.90
52879;DHT22;38747;53.140;6.498;2022-12-07T01:50:17;3.40;99.90
52879;DHT22;38747;53.140;6.498;2022-12-07T01:52:44;3.30;99.90
52879;DHT22;38747;53.140;6.498;2022-12-07T01:55:12;3.30;99.90
52879;DHT22;38747;53.140;6.498;2022-12-07T01:57:42;3.30;99.90
52879;DHT22;38747;53.140;6.498;2022-12-07T02:00:09;3.20;99.90
52879;DHT22;38747;53.140;6.498;2022-12-07T02:02:39;3.20;99.90
52879;DHT22;38747;53.140;6.498;2022-12-07T02:05:07;3.20;99.90
52879;DHT22;38747;53.140;6.498;2022-12-07T02:07:34;3.10;99.90
52879;DHT22;38747;53.140;6.498;2022-12-07T02:10:18;3.10;99.90
52879;DHT22;38747;53.140;6.498;2022-12-07T02:12:45;3.10;99.90
52879;DHT22;38747;53.140;6.498;2022-12-07T02:15:12;3.10;99.90
52879;DHT22;38747;53.140;6.498;2022-12-07T02:17:59;3.10;99.90
52879;DHT22;38747;53.140;6.498;2022-12-07T02:20:33;3.10;99.90
52879;DHT22;38747;53.140;6.498;2022-12-07T02:31:28;3.20;99.90
52879;DHT22;38747;53.140;6.498;2022-12-07T02:34:31;3.30;99.90
52879;DHT22;38747;53.140;6.498;2022-12-07T02:37:03;3.30;99.90
52879;DHT22;38747;53.140;6.498;2022-12-07T02:39:49;3.30;99.90
52879;DHT22;38747;53.140;6.498;2022-12-07T02:42:21;3.40;99.90
52879;DHT22;38747;53.140;6.498;2022-12-07T02:44:49;3.50;99.90
52879;DHT22;38747;53.140;6.498;2022-12-07T02:47:16;3.60;99.90
52879;DHT22;38747;53.140;6.498;2022-12-07T02:49:44;3.60;99.90
52879;DHT22;38747;53.140;6.498;2022-12-07T02:52:11;3.70;99.90
52879;DHT22;38747;53.140;6.498;2022-12-07T02:54:36;3.80;99.90
52879;DHT22;38747;53.140;6.498;2022-12-07T02:58:00;3.80;99.90
52879;DHT22;38747;53.140;6.498;2022-12-07T03:00:11;3.80;99.90
52879;DHT22;38747;53.140;6.498;2022-12-07T03:05:42;3.70;99.90
52879;DHT22;38747;53.140;6.498;2022-12-07T03:08:24;3.60;99.90
52879;DHT22;38747;53.140;6.498;2022-12-07T03:11:03;3.70;99.90
52879;DHT22;38747;53.140;6.498;2022-12-07T03:13:47;3.70;99.90
52879;DHT22;38747;53.140;6.498;2022-12-07T03:19:07;3.70;99.90
52879;DHT22;38747;53.140;6.498;2022-12-07T03:21:46;3.60;99.90
52879;DHT22;38747;53.140;6.498;2022-12-07T03:24:18;3.60;99.90
52879;DHT22;38747;53.140;6.498;2022-12-07T03:26:48;3.50;99.90
52879;DHT22;38747;53.140;6.498;2022-12-07T03:29:50;3.50;99.90
52879;DHT22;38747;53.140;6.498;2022-12-07T03:32:41;3.50;99.90
52879;DHT22;38747;53.140;6.498;2022-12-07T03:35:25;3.50;99.90
52879;DHT22;38747;53.140;6.498;2022-12-07T03:37:59;3.40;99.90
52879;DHT22;38747;53.140;6.498;2022-12-07T03:40:43;3.40;99.90
52879;DHT22;38747;53.140;6.498;2022-12-07T03:43:10;3.40;99.90
52879;DHT22;38747;53.140;6.498;2022-12-07T03:45:42;3.30;99.90
52879;DHT22;38747;53.140;6.498;2022-12-07T03:48:35;3.30;99.90
52879;DHT22;38747;53.140;6.498;2022-12-07T03:51:18;3.30;99.90
52879;DHT22;38747;53.140;6.498;2022-12-07T03:53:58;3.20;99.90
52879;DHT22;38747;53.140;6.498;2022-12-07T03:56:25;3.20;99.90
52879;DHT22;38747;53.140;6.498;2022-12-07T03:58:53;3.20;99.90
52879;DHT22;38747;53.140;6.498;2022-12-07T04:01:19;3.20;99.90
52879;DHT22;38747;53.140;6.498;2022-12-07T04:03:45;3.20;99.90
52879;DHT22;38747;53.140;6.498;2022-12-07T04:06:11;3.20;99.90
52879;DHT22;38747;53.140;6.498;2022-12-07T04:08:36;3.10;99.90
52879;DHT22;38747;53.140;6.498;2022-12-07T04:11:02;3.10;99.90
52879;DHT22;38747;53.140;6.498;2022-12-07T04:13:28;3.10;99.90
52879;DHT22;38747;53.140;6.498;2022-12-07T04:15:54;3.00;99.90
52879;DHT22;38747;53.140;6.498;2022-12-07T04:18:19;3.00;99.90
52879;DHT22;38747;53.140;6.498;2022-12-07T04:20:46;3.00;99.90
52879;DHT22;38747;53.140;6.498;2022-12-07T04:23:11;3.00;99.90
52879;DHT22;38747;53.140;6.498;2022-12-07T04:25:37;2.90;99.90
52879;DHT22;38747;53.140;6.498;2022-12-07T04:28:03;2.90;99.90
52879;DHT22;38747;53.140;6.498;2022-12-07T04:30:28;2.90;99.90
52879;DHT22;38747;53.140;6.498;2022-12-07T04:32:54;2.90;99.90
52879;DHT22;38747;53.140;6.498;2022-12-07T04:35:19;3.00;99.90
52879;DHT22;38747;53.140;6.498;2022-12-07T04:37:45;3.00;99.90
52879;DHT22;38747;53.140;6.498;2022-12-07T04:40:11;3.00;99.90
52879;DHT22;38747;53.140;6.498;2022-12-07T04:42:39;3.00;99.90
52879;DHT22;38747;53.140;6.498;2022-12-07T04:45:05;3.10;99.90
52879;DHT22;38747;53.140;6.498;2022-12-07T04:47:31;3.20;99.90
52879;DHT22;38747;53.140;6.498;2022-12-07T04:49:57;3.20;99.90
52879;DHT22;38747;53.140;6.498;2022-12-07T04:52:22;3.40;99.90
52879;DHT22;38747;53.140;6.498;2022-12-07T04:54:48;3.40;99.90
52879;DHT22;38747;53.140;6.498;2022-12-07T04:57:14;3.50;99.90
52879;DHT22;38747;53.140;6.498;2022-12-07T04:59:39;3.50;99.90
52879;DHT22;38747;53.140;6.498;2022-12-07T05:02:05;3.60;99.90
52879;DHT22;38747;53.140;6.498;2022-12-07T05:04:30;3.50;99.90
52879;DHT22;38747;53.140;6.498;2022-12-07T05:06:56;3.60;99.90
52879;DHT22;38747;53.140;6.498;2022-12-07T05:09:21;3.50;99.90
52879;DHT22;38747;53.140;6.498;2022-12-07T05:11:47;3.40;99.90
52879;DHT22;38747;53.140;6.498;2022-12-07T05:14:19;3.40;99.90
52879;DHT22;38747;53.140;6.498;2022-12-07T05:16:46;3.30;99.90
52879;DHT22;38747;53.140;6.498;2022-12-07T05:19:12;3.20;99.90
52879;DHT22;38747;53.140;6.498;2022-12-07T05:21:39;3.20;99.90
52879;DHT22;38747;53.140;6.498;2022-12-07T05:24:05;3.10;99.90
52879;DHT22;38747;53.140;6.498;2022-12-07T05:26:31;3.00;99.90
52879;DHT22;38747;53.140;6.498;2022-12-07T05:28:57;2.90;99.90
52879;DHT22;38747;53.140;6.498;2022-12-07T05:31:24;2.70;99.90
52879;DHT22;38747;53.140;6.498;2022-12-07T05:33:50;2.70;99.90
52879;DHT22;38747;53.140;6.498;2022-12-07T05:36:16;2.60;99.90
52879;DHT22;38747;53.140;6.498;2022-12-07T05:38:41;2.50;99.90
52879;DHT22;38747;53.140;6.498;2022-12-07T05:41:08;2.40;99.90
52879;DHT22;38747;53.140;6.498;2022-12-07T05:43:56;2.30;99.90
52879;DHT22;38747;53.140;6.498;2022-12-07T05:46:22;2.30;99.90
52879;DHT22;38747;53.140;6.498;2022-12-07T05:48:48;2.30;99.90
52879;DHT22;38747;53.140;6.498;2022-12-07T05:51:13;2.30;99.90
52879;DHT22;38747;53.140;6.498;2022-12-07T05:53:39;2.30;99.90
52879;DHT22;38747;53.140;6.498;2022-12-07T05:56:05;2.30;99.90
52879;DHT22;38747;53.140;6.498;2022-12-07T05:58:31;2.30;99.90
52879;DHT22;38747;53.140;6.498;2022-12-07T06:01:15;2.30;99.90
52879;DHT22;38747;53.140;6.498;2022-12-07T06:03:40;2.30;99.90
52879;DHT22;38747;53.140;6.498;2022-12-07T06:06:06;2.20;99.90
52879;DHT22;38747;53.140;6.498;2022-12-07T06:08:31;2.20;99.90
52879;DHT22;38747;53.140;6.498;2022-12-07T06:10:57;2.20;99.90
52879;DHT22;38747;53.140;6.498;2022-12-07T06:13:41;2.20;99.90
52879;DHT22;38747;53.140;6.498;2022-12-07T06:16:07;2.20;99.90
52879;DHT22;38747;53.140;6.498;2022-12-07T06:18:32;2.20;99.90
52879;DHT22;38747;53.140;6.498;2022-12-07T06:20:58;2.30;99.90
52879;DHT22;38747;53.140;6.498;2022-12-07T06:23:23;2.30;99.90
52879;DHT22;38747;53.140;6.498;2022-12-07T06:25:49;2.40;99.90
52879;DHT22;38747;53.140;6.498;2022-12-07T06:28:15;2.50;99.90
52879;DHT22;38747;53.140;6.498;2022-12-07T06:30:40;2.70;99.90
52879;DHT22;38747;53.140;6.498;2022-12-07T06:33:06;2.70;99.90
52879;DHT22;38747;53.140;6.498;2022-12-07T06:35:33;2.80;99.90
52879;DHT22;38747;53.140;6.498;2022-12-07T06:37:58;2.80;99.90
52879;DHT22;38747;53.140;6.498;2022-12-07T06:40:24;2.70;99.90
52879;DHT22;38747;53.140;6.498;2022-12-07T06:42:49;2.70;99.90
52879;DHT22;38747;53.140;6.498;2022-12-07T06:45:15;2.70;99.90
52879;DHT22;38747;53.140;6.498;2022-12-07T06:47:41;2.60;99.90
52879;DHT22;38747;53.140;6.498;2022-12-07T06:50:07;2.60;99.90
52879;DHT22;38747;53.140;6.498;2022-12-07T06:52:33;2.50;99.90
52879;DHT22;38747;53.140;6.498;2022-12-07T06:54:59;2.40;99.90
52879;DHT22;38747;53.140;6.498;2022-12-07T06:57:25;2.40;99.90
52879;DHT22;38747;53.140;6.498;2022-12-07T06:59:51;2.30;99.90
52879;DHT22;38747;53.140;6.498;2022-12-07T07:02:16;2.20;99.90
52879;DHT22;38747;53.140;6.498;2022-12-07T07:04:42;2.20;99.90
52879;DHT22;38747;53.140;6.498;2022-12-07T07:07:08;2.10;99.90
52879;DHT22;38747;53.140;6.498;2022-12-07T07:09:33;2.10;99.90
52879;DHT22;38747;53.140;6.498;2022-12-07T07:11:59;2.10;99.90
52879;DHT22;38747;53.140;6.498;2022-12-07T07:14:25;2.10;99.90
52879;DHT22;38747;53.140;6.498;2022-12-07T07:16:53;2.20;99.90
52879;DHT22;38747;53.140;6.498;2022-12-07T07:19:19;2.20;99.90
52879;DHT22;38747;53.140;6.498;2022-12-07T07:21:44;2.30;99.90
52879;DHT22;38747;53.140;6.498;2022-12-07T07:24:10;2.30;99.90
52879;DHT22;38747;53.140;6.498;2022-12-07T07:26:35;2.30;99.90
52879;DHT22;38747;53.140;6.498;2022-12-07T07:29:01;2.30;99.90
52879;DHT22;38747;53.140;6.498;2022-12-07T07:31:27;2.30;99.90
52879;DHT22;38747;53.140;6.498;2022-12-07T07:33:53;2.40;99.90
52879;DHT22;38747;53.140;6.498;2022-12-07T07:36:18;2.40;99.90
52879;DHT22;38747;53.140;6.498;2022-12-07T07:38:44;2.40;99.90
52879;DHT22;38747;53.140;6.498;2022-12-07T07:41:09;2.40;99.90
52879;DHT22;38747;53.140;6.498;2022-12-07T07:43:35;2.30;99.90
52879;DHT22;38747;53.140;6.498;2022-12-07T07:46:00;2.30;99.90
52879;DHT22;38747;53.140;6.498;2022-12-07T07:48:26;2.20;99.90
52879;DHT22;38747;53.140;6.498;2022-12-07T07:50:52;2.10;99.90
52879;DHT22;38747;53.140;6.498;2022-12-07T07:53:17;2.10;99.90
52879;DHT22;38747;53.140;6.498;2022-12-07T07:55:53;2.00;99.90
52879;DHT22;38747;53.140;6.498;2022-12-07T07:58:19;1.90;99.90
52879;DHT22;38747;53.140;6.498;2022-12-07T08:00:45;2.00;99.90
52879;DHT22;38747;53.140;6.498;2022-12-07T08:03:11;1.90;99.90
52879;DHT22;38747;53.140;6.498;2022-12-07T08:05:37;1.90;99.90
52879;DHT22;38747;53.140;6.498;2022-12-07T08:08:03;1.90;99.90
52879;DHT22;38747;53.140;6.498;2022-12-07T08:10:29;2.00;99.90
52879;DHT22;38747;53.140;6.498;2022-12-07T08:12:55;2.00;99.90
52879;DHT22;38747;53.140;6.498;2022-12-07T08:15:41;2.10;99.90
52879;DHT22;38747;53.140;6.498;2022-12-07T08:18:06;2.20;99.90
52879;DHT22;38747;53.140;6.498;2022-12-07T08:20:33;2.20;99.90
52879;DHT22;38747;53.140;6.498;2022-12-07T08:23:00;2.30;99.90
52879;DHT22;38747;53.140;6.498;2022-12-07T08:25:26;2.30;99.90
52879;DHT22;38747;53.140;6.498;2022-12-07T08:27:52;2.30;99.90
52879;DHT22;38747;53.140;6.498;2022-12-07T08:30:18;2.30;99.90
52879;DHT22;38747;53.140;6.498;2022-12-07T08:32:45;2.30;99.90
52879;DHT22;38747;53.140;6.498;2022-12-07T08:35:11;2.30;99.90
52879;DHT22;38747;53.140;6.498;2022-12-07T08:37:36;2.30;99.90
52879;DHT22;38747;53.140;6.498;2022-12-07T08:40:04;2.30;99.90
52879;DHT22;38747;53.140;6.498;2022-12-07T08:42:30;2.30;99.90
52879;DHT22;38747;53.140;6.498;2022-12-07T08:45:07;2.30;99.90
52879;DHT22;38747;53.140;6.498;2022-12-07T08:47:35;2.40;99.90
52879;DHT22;38747;53.140;6.498;2022-12-07T08:50:02;2.40;99.90
52879;DHT22;38747;53.140;6.498;2022-12-07T08:52:32;2.40;99.90
52879;DHT22;38747;53.140;6.498;2022-12-07T08:54:59;2.50;99.90
52879;DHT22;38747;53.140;6.498;2022-12-07T08:57:27;2.60;99.90
52879;DHT22;38747;53.140;6.498;2022-12-07T08:59:53;2.60;99.90
52879;DHT22;38747;53.140;6.498;2022-12-07T09:02:21;2.60;99.90
52879;DHT22;38747;53.140;6.498;2022-12-07T09:04:47;2.70;99.90
52879;DHT22;38747;53.140;6.498;2022-12-07T09:07:12;2.80;99.90
52879;DHT22;38747;53.140;6.498;2022-12-07T09:09:38;2.90;99.90
52879;DHT22;38747;53.140;6.498;2022-12-07T09:12:04;3.00;99.90
52879;DHT22;38747;53.140;6.498;2022-12-07T09:14:30;3.10;99.90
52879;DHT22;38747;53.140;6.498;2022-12-07T09:17:04;3.20;99.90
52879;DHT22;38747;53.140;6.498;2022-12-07T09:19:30;3.30;99.90
52879;DHT22;38747;53.140;6.498;2022-12-07T09:21:55;3.40;99.90
52879;DHT22;38747;53.140;6.498;2022-12-07T09:24:21;3.60;99.90
52879;DHT22;38747;53.140;6.498;2022-12-07T09:26:48;3.70;99.90
52879;DHT22;38747;53.140;6.498;2022-12-07T09:29:13;3.80;99.90
52879;DHT22;38747;53.140;6.498;2022-12-07T09:31:39;3.90;99.90
52879;DHT22;38747;53.140;6.498;2022-12-07T09:34:04;4.00;99.90
52879;DHT22;38747;53.140;6.498;2022-12-07T09:36:31;4.00;99.90
52879;DHT22;38747;53.140;6.498;2022-12-07T09:38:57;4.00;99.90
52879;DHT22;38747;53.140;6.498;2022-12-07T09:41:24;4.00;99.90
52879;DHT22;38747;53.140;6.498;2022-12-07T09:43:51;3.90;99.90
52879;DHT22;38747;53.140;6.498;2022-12-07T09:46:19;3.90;99.90
52879;DHT22;38747;53.140;6.498;2022-12-07T09:48:46;3.90;99.90
52879;DHT22;38747;53.140;6.498;2022-12-07T09:51:19;3.90;99.90
52879;DHT22;38747;53.140;6.498;2022-12-07T09:53:45;3.90;99.90
52879;DHT22;38747;53.140;6.498;2022-12-07T09:56:13;3.80;99.90
52879;DHT22;38747;53.140;6.498;2022-12-07T09:58:40;3.90;99.90
52879;DHT22;38747;53.140;6.498;2022-12-07T10:01:13;4.00;99.90
52879;DHT22;38747;53.140;6.498;2022-12-07T10:06:16;4.00;99.90
52879;DHT22;38747;53.140;6.498;2022-12-07T10:08:41;4.00;99.90
52879;DHT22;38747;53.140;6.498;2022-12-07T10:11:09;4.00;99.90
52879;DHT22;38747;53.140;6.498;2022-12-07T10:13:39;4.00;99.90
52879;DHT22;38747;53.140;6.498;2022-12-07T10:16:06;4.00;99.90
52879;DHT22;38747;53.140;6.498;2022-12-07T10:18:49;4.00;99.90
52879;DHT22;38747;53.140;6.498;2022-12-07T10:21:25;4.00;99.90
52879;DHT22;38747;53.140;6.498;2022-12-07T10:24:24;4.00;99.90
52879;DHT22;38747;53.140;6.498;2022-12-07T10:26:54;4.10;99.90
52879;DHT22;38747;53.140;6.498;2022-12-07T10:29:29;4.10;99.90
52879;DHT22;38747;53.140;6.498;2022-12-07T10:32:25;4.20;99.90
52879;DHT22;38747;53.140;6.498;2022-12-07T10:37:47;4.30;99.90
52879;DHT22;38747;53.140;6.498;2022-12-07T10:40:26;4.40;99.90
52879;DHT22;38747;53.140;6.498;2022-12-07T10:43:05;4.50;99.90
52879;DHT22;38747;53.140;6.498;2022-12-07T10:45:32;4.60;99.90
52879;DHT22;38747;53.140;6.498;2022-12-07T10:51:00;4.80;99.90
52879;DHT22;38747;53.140;6.498;2022-12-07T10:53:44;4.90;99.90
52879;DHT22;38747;53.140;6.498;2022-12-07T11:06:51;5.00;99.90
52879;DHT22;38747;53.140;6.498;2022-12-07T11:15:09;4.10;99.90
52879;DHT22;38747;53.140;6.498;2022-12-07T11:17:49;3.90;99.90
52879;DHT22;38747;53.140;6.498;2022-12-07T11:23:43;3.80;99.90
52879;DHT22;38747;53.140;6.498;2022-12-07T11:26:31;3.80;99.90
52879;DHT22;38747;53.140;6.498;2022-12-07T11:37:27;4.00;99.90
52879;DHT22;38747;53.140;6.498;2022-12-07T11:39:59;4.10;99.90
52879;DHT22;38747;53.140;6.498;2022-12-07T11:42:30;4.20;99.90
52879;DHT22;38747;53.140;6.498;2022-12-07T11:48:22;4.40;99.90
52879;DHT22;38747;53.140;6.498;2022-12-07T11:50:53;4.50;99.90
52879;DHT22;38747;53.140;6.498;2022-12-07T11:56:14;4.80;99.90
52879;DHT22;38747;53.140;6.498;2022-12-07T12:03:51;5.20;99.90
52879;DHT22;38747;53.140;6.498;2022-12-07T12:06:19;5.30;99.90
52879;DHT22;38747;53.140;6.498;2022-12-07T12:22:56;5.40;99.90
52879;DHT22;38747;53.140;6.498;2022-12-07T12:25:27;5.30;99.90
52879;DHT22;38747;53.140;6.498;2022-12-07T12:27:55;5.30;99.90
52879;DHT22;38747;53.140;6.498;2022-12-07T12:30:39;5.20;99.90
52879;DHT22;38747;53.140;6.498;2022-12-07T12:33:14;5.10;99.90
52879;DHT22;38747;53.140;6.498;2022-12-07T12:35:40;5.10;99.90
52879;DHT22;38747;53.140;6.498;2022-12-07T12:40:51;5.10;99.90
52879;DHT22;38747;53.140;6.498;2022-12-07T12:43:43;5.10;99.90
52879;DHT22;38747;53.140;6.498;2022-12-07T12:52:00;5.10;99.90
52879;DHT22;38747;53.140;6.498;2022-12-07T12:54:32;5.10;99.90
52879;DHT22;38747;53.140;6.498;2022-12-07T13:18:03;4.40;99.90
52879;DHT22;38747;53.140;6.498;2022-12-07T13:20:50;4.30;99.90
52879;DHT22;38747;53.140;6.498;2022-12-07T13:28:47;4.10;99.90
52879;DHT22;38747;53.140;6.498;2022-12-07T13:34:47;4.00;99.90
52879;DHT22;38747;53.140;6.498;2022-12-07T13:39:57;4.00;99.90
52879;DHT22;38747;53.140;6.498;2022-12-07T13:42:26;3.90;99.90
52879;DHT22;38747;53.140;6.498;2022-12-07T13:44:52;3.90;99.90
52879;DHT22;38747;53.140;6.498;2022-12-07T13:47:52;4.00;99.90
52879;DHT22;38747;53.140;6.498;2022-12-07T13:50:28;4.00;99.90
52879;DHT22;38747;53.140;6.498;2022-12-07T13:52:56;4.10;99.90
52879;DHT22;38747;53.140;6.498;2022-12-07T13:55:22;4.10;99.90
52879;DHT22;38747;53.140;6.498;2022-12-07T13:57:50;4.00;99.90
52879;DHT22;38747;53.140;6.498;2022-12-07T14:00:20;4.00;99.90
52879;DHT22;38747;53.140;6.498;2022-12-07T14:02:56;4.00;99.90
52879;DHT22;38747;53.140;6.498;2022-12-07T14:10:52;3.90;99.90
52879;DHT22;38747;53.140;6.498;2022-12-07T14:13:30;3.80;99.90
52879;DHT22;38747;53.140;6.498;2022-12-07T14:15:56;3.80;99.90
52879;DHT22;38747;53.140;6.498;2022-12-07T14:18:30;3.70;99.90
52879;DHT22;38747;53.140;6.498;2022-12-07T14:21:15;3.60;99.90
52879;DHT22;38747;53.140;6.498;2022-12-07T14:23:41;3.50;99.90
52879;DHT22;38747;53.140;6.498;2022-12-07T14:26:14;3.50;99.90
52879;DHT22;38747;53.140;6.498;2022-12-07T14:28:42;3.40;99.90
52879;DHT22;38747;53.140;6.498;2022-12-07T14:31:14;3.40;99.90
52879;DHT22;38747;53.140;6.498;2022-12-07T14:33:40;3.40;99.90
52879;DHT22;38747;53.140;6.498;2022-12-07T14:36:09;3.40;99.90
52879;DHT22;38747;53.140;6.498;2022-12-07T14:38:36;3.50;99.90
52879;DHT22;38747;53.140;6.498;2022-12-07T14:41:01;3.50;99.90
52879;DHT22;38747;53.140;6.498;2022-12-07T14:43:46;3.60;99.90
52879;DHT22;38747;53.140;6.498;2022-12-07T14:46:11;3.60;99.90
52879;DHT22;38747;53.140;6.498;2022-12-07T14:48:37;3.60;99.90
52879;DHT22;38747;53.140;6.498;2022-12-07T14:51:03;3.60;99.90
52879;DHT22;38747;53.140;6.498;2022-12-07T14:53:35;3.70;99.90
52879;DHT22;38747;53.140;6.498;2022-12-07T14:56:05;3.70;99.90
52879;DHT22;38747;53.140;6.498;2022-12-07T14:58:31;3.60;99.90
52879;DHT22;38747;53.140;6.498;2022-12-07T15:00:58;3.60;99.90
52879;DHT22;38747;53.140;6.498;2022-12-07T15:03:24;3.60;99.90
52879;DHT22;38747;53.140;6.498;2022-12-07T15:05:49;3.50;99.90
52879;DHT22;38747;53.140;6.498;2022-12-07T15:08:15;3.50;99.90
52879;DHT22;38747;53.140;6.498;2022-12-07T15:10:40;3.40;99.90
52879;DHT22;38747;53.140;6.498;2022-12-07T15:13:07;3.40;99.90
52879;DHT22;38747;53.140;6.498;2022-12-07T15:15:53;3.30;99.90
52879;DHT22;38747;53.140;6.498;2022-12-07T15:18:19;3.20;99.90
52879;DHT22;38747;53.140;6.498;2022-12-07T15:20:46;3.10;99.90
52879;DHT22;38747;53.140;6.498;2022-12-07T15:23:12;3.10;99.90
52879;DHT22;38747;53.140;6.498;2022-12-07T15:25:41;3.00;99.90
52879;DHT22;38747;53.140;6.498;2022-12-07T15:28:07;3.00;99.90
52879;DHT22;38747;53.140;6.498;2022-12-07T15:30:33;3.00;99.90
52879;DHT22;38747;53.140;6.498;2022-12-07T15:32:58;2.90;99.90
52879;DHT22;38747;53.140;6.498;2022-12-07T15:35:24;2.90;99.90
52879;DHT22;38747;53.140;6.498;2022-12-07T15:37:50;2.90;99.90
52879;DHT22;38747;53.140;6.498;2022-12-07T15:40:15;2.80;99.90
52879;DHT22;38747;53.140;6.498;2022-12-07T15:42:41;2.80;99.90
52879;DHT22;38747;53.140;6.498;2022-12-07T15:45:08;2.80;99.90
52879;DHT22;38747;53.140;6.498;2022-12-07T15:47:37;2.80;99.90
52879;DHT22;38747;53.140;6.498;2022-12-07T15:50:05;2.80;99.90
52879;DHT22;38747;53.140;6.498;2022-12-07T15:52:32;2.80;99.90
52879;DHT22;38747;53.140;6.498;2022-12-07T15:54:58;2.80;99.90
52879;DHT22;38747;53.140;6.498;2022-12-07T15:57:26;2.70;99.90
52879;DHT22;38747;53.140;6.498;2022-12-07T15:59:51;2.70;99.90
52879;DHT22;38747;53.140;6.498;2022-12-07T16:02:17;2.70;99.90
52879;DHT22;38747;53.140;6.498;2022-12-07T16:04:43;2.70;99.90
52879;DHT22;38747;53.140;6.498;2022-12-07T16:07:09;2.70;99.90
52879;DHT22;38747;53.140;6.498;2022-12-07T16:09:37;2.70;99.90
52879;DHT22;38747;53.140;6.498;2022-12-07T16:12:02;2.60;99.90
52879;DHT22;38747;53.140;6.498;2022-12-07T16:14:28;2.60;99.90
52879;DHT22;38747;53.140;6.498;2022-12-07T16:16:54;2.60;99.90
52879;DHT22;38747;53.140;6.498;2022-12-07T16:19:20;2.60;99.90
52879;DHT22;38747;53.140;6.498;2022-12-07T16:21:45;2.60;99.90
52879;DHT22;38747;53.140;6.498;2022-12-07T16:24:11;2.60;99.90
52879;DHT22;38747;53.140;6.498;2022-12-07T16:26:38;2.70;99.90
52879;DHT22;38747;53.140;6.498;2022-12-07T16:29:04;2.70;99.90
52879;DHT22;38747;53.140;6.498;2022-12-07T16:31:29;2.80;99.90
52879;DHT22;38747;53.140;6.498;2022-12-07T16:33:57;2.80;99.90
52879;DHT22;38747;53.140;6.498;2022-12-07T16:36:23;2.80;99.90
52879;DHT22;38747;53.140;6.498;2022-12-07T16:38:50;2.90;99.90
52879;DHT22;38747;53.140;6.498;2022-12-07T16:41:16;2.90;99.90
52879;DHT22;38747;53.140;6.498;2022-12-07T16:43:41;3.00;99.90
52879;DHT22;38747;53.140;6.498;2022-12-07T16:46:07;3.00;99.90
52879;DHT22;38747;53.140;6.498;2022-12-07T16:48:39;3.00;99.90
52879;DHT22;38747;53.140;6.498;2022-12-07T16:51:07;3.00;99.90
52879;DHT22;38747;53.140;6.498;2022-12-07T16:53:34;3.00;99.90
52879;DHT22;38747;53.140;6.498;2022-12-07T16:56:00;2.90;99.90
52879;DHT22;38747;53.140;6.498;2022-12-07T16:58:26;2.90;99.90
52879;DHT22;38747;53.140;6.498;2022-12-07T17:00:52;3.00;99.90
52879;DHT22;38747;53.140;6.498;2022-12-07T17:03:18;3.00;99.90
52879;DHT22;38747;53.140;6.498;2022-12-07T17:05:45;2.90;99.90
52879;DHT22;38747;53.140;6.498;2022-12-07T17:08:12;2.90;99.90
52879;DHT22;38747;53.140;6.498;2022-12-07T17:10:40;2.90;99.90
52879;DHT22;38747;53.140;6.498;2022-12-07T17:13:06;2.90;99.90
52879;DHT22;38747;53.140;6.498;2022-12-07T17:15:56;2.90;99.90
52879;DHT22;38747;53.140;6.498;2022-12-07T17:18:21;2.90;99.90
52879;DHT22;38747;53.140;6.498;2022-12-07T17:20:47;2.90;99.90
52879;DHT22;38747;53.140;6.498;2022-12-07T17:23:12;2.90;99.90
52879;DHT22;38747;53.140;6.498;2022-12-07T17:25:38;2.90;99.90
52879;DHT22;38747;53.140;6.498;2022-12-07T17:28:04;2.80;99.90
52879;DHT22;38747;53.140;6.498;2022-12-07T17:30:29;2.90;99.90
52879;DHT22;38747;53.140;6.498;2022-12-07T17:32:55;2.80;99.90
52879;DHT22;38747;53.140;6.498;2022-12-07T17:35:21;2.80;99.90
52879;DHT22;38747;53.140;6.498;2022-12-07T17:37:47;2.80;99.90
52879;DHT22;38747;53.140;6.498;2022-12-07T17:40:14;2.80;99.90
52879;DHT22;38747;53.140;6.498;2022-12-07T17:42:39;2.90;99.90
52879;DHT22;38747;53.140;6.498;2022-12-07T17:45:07;2.90;99.90
52879;DHT22;38747;53.140;6.498;2022-12-07T17:47:35;2.80;99.90
52879;DHT22;38747;53.140;6.498;2022-12-07T17:50:01;2.90;99.90
52879;DHT22;38747;53.140;6.498;2022-12-07T17:52:26;2.90;99.90
52879;DHT22;38747;53.140;6.498;2022-12-07T17:55:10;2.90;99.90
52879;DHT22;38747;53.140;6.498;2022-12-07T17:57:36;2.90;99.90
52879;DHT22;38747;53.140;6.498;2022-12-07T18:00:04;2.90;99.90
52879;DHT22;38747;53.140;6.498;2022-12-07T18:02:30;2.90;99.90